Time;durP1;ratioP1;P1;durP2;ratioP2;P2;SDS_P1;SDS_P2;PMS_P1;PMS_P2;Temp;Humidity;BMP_temperature;BMP_pressure;BME280_temperature;BME280_humidity;BME280_pressure;Samples;Min_cycle;Max_cycle;Signal;HPM_P1;HPM_P2
2021/04/05 00:01:09;;;;;;;12.32;7.72;;;5.50;99.90;;;;;;4912846;29;20057;-77
2021/04/05 00:03:35;;;;;;;11.95;8.07;;;5.40;99.90;;;;;;4913878;29;20033;-76
2021/04/05 00:06:01;;;;;;;13.07;7.90;;;5.30;99.90;;;;;;4915507;29;20553;-77
2021/04/05 00:08:27;;;;;;;11.65;8.68;;;5.20;99.90;;;;;;4919562;29;20020;-76
2021/04/05 00:10:54;;;;;;;12.82;8.70;;;5.20;99.90;;;;;;4915472;29;20032;-79
2021/04/05 00:13:23;;;;;;;15.32;8.23;;;5.10;99.90;;;;;;4912591;29;20025;-76
2021/04/05 00:15:52;;;;;;;15.32;8.68;;;5.20;99.90;;;;;;4905488;29;20458;-77
2021/04/05 00:18:20;;;;;;;14.43;8.98;;;5.20;99.90;;;;;;4911863;29;20025;-78
2021/04/05 00:20:52;;;;;;;13.70;8.70;;;5.10;99.90;;;;;;4910450;29;20032;-77
2021/04/05 00:23:18;;;;;;;11.85;7.97;;;;;;;;;;4904832;29;20551;-77
2021/04/05 00:25:45;;;;;;;14.80;8.43;;;;;;;;;;4915597;29;20035;-78
2021/04/05 00:28:11;;;;;;;13.77;8.13;;;5.10;99.90;;;;;;4917329;29;20028;-77
2021/04/05 00:30:38;;;;;;;14.90;7.85;;;5.10;99.90;;;;;;4920632;29;20060;-80
2021/04/05 00:33:05;;;;;;;11.50;7.05;;;5.00;99.90;;;;;;4911464;29;20039;-81
2021/04/05 00:35:33;;;;;;;11.52;7.47;;;5.10;99.90;;;;;;4916327;29;20486;-76
2021/04/05 00:38:00;;;;;;;19.88;10.05;;;5.10;99.90;;;;;;4919426;29;20032;-78
2021/04/05 00:40:32;;;;;;;10.70;7.25;;;5.00;99.90;;;;;;4913041;29;20029;-78
2021/04/05 00:42:58;;;;;;;11.35;7.93;;;5.00;99.90;;;;;;4912139;29;20108;-77
2021/04/05 00:45:25;;;;;;;12.18;6.78;;;5.00;99.90;;;;;;4901836;29;20037;-77
2021/04/05 00:47:53;;;;;;;9.60;6.88;;;5.00;99.90;;;;;;4897760;29;20029;-76
2021/04/05 00:50:32;;;;;;;10.23;7.10;;;5.00;99.90;;;;;;4911819;29;20020;-77
2021/04/05 00:52:58;;;;;;;12.18;7.63;;;5.00;99.90;;;;;;4900725;29;20043;-76
2021/04/05 00:55:25;;;;;;;8.40;6.50;;;5.00;99.90;;;;;;4910178;29;20028;-79
2021/04/05 00:57:52;;;;;;;11.15;7.20;;;;;;;;;;4895935;29;20036;-79
2021/04/05 01:00:32;;;;;;;12.30;7.72;;;4.90;99.90;;;;;;4912656;29;20028;-78
2021/04/05 01:02:59;;;;;;;12.93;7.13;;;4.90;99.90;;;;;;4913721;29;20047;-81
2021/04/05 01:05:27;;;;;;;11.00;6.68;;;5.00;99.90;;;;;;4920426;29;20068;-80
2021/04/05 01:07:53;;;;;;;10.10;6.82;;;4.90;99.90;;;;;;4920611;29;20029;-77
2021/04/05 01:10:21;;;;;;;12.35;6.75;;;5.00;99.90;;;;;;4909822;29;20033;-78
2021/04/05 01:12:46;;;;;;;10.95;7.53;;;5.00;99.90;;;;;;4918373;29;20029;-80
2021/04/05 01:15:16;;;;;;;9.82;6.20;;;5.00;99.90;;;;;;4925447;29;20039;-78
2021/04/05 01:17:42;;;;;;;10.60;7.05;;;5.00;99.90;;;;;;4913501;29;20052;-77
2021/04/05 01:20:13;;;;;;;10.93;6.25;;;4.90;99.90;;;;;;4920968;29;20038;-77
2021/04/05 01:22:42;;;;;;;10.52;7.03;;;4.90;99.90;;;;;;4915136;29;20028;-77
2021/04/05 01:25:15;;;;;;;10.48;7.43;;;4.90;99.90;;;;;;4915885;29;20048;-76
2021/04/05 01:27:44;;;;;;;10.65;6.65;;;4.90;99.90;;;;;;4919681;29;20040;-77
2021/04/05 01:30:32;;;;;;;12.50;7.40;;;4.80;99.90;;;;;;4909756;29;20036;-77
2021/04/05 01:33:30;;;;;;;13.35;7.85;;;4.90;99.90;;;;;;4912348;29;20029;-79
2021/04/05 01:36:01;;;;;;;10.77;6.85;;;4.90;99.90;;;;;;4908333;29;20111;-80
2021/04/05 01:38:30;;;;;;;9.98;6.65;;;4.80;99.90;;;;;;4906765;29;20396;-80
2021/04/05 01:41:01;;;;;;;11.85;7.60;;;4.80;99.90;;;;;;4907126;29;20044;-78
2021/04/05 01:43:27;;;;;;;10.10;6.72;;;4.70;99.90;;;;;;4907122;29;20056;-79
2021/04/05 01:46:00;;;;;;;11.30;6.63;;;4.70;99.90;;;;;;4902152;29;20040;-79
2021/04/05 01:48:28;;;;;;;9.85;6.93;;;4.70;99.90;;;;;;4906676;29;20020;-81
2021/04/05 01:51:19;;;;;;;11.88;6.82;;;4.70;99.90;;;;;;4912935;29;20414;-78
2021/04/05 01:53:46;;;;;;;11.15;6.68;;;4.70;99.90;;;;;;4897442;29;20094;-79
2021/04/05 01:56:15;;;;;;;10.68;6.82;;;4.60;99.90;;;;;;4914239;29;20029;-80
2021/04/05 01:58:46;;;;;;;13.75;6.88;;;4.70;99.90;;;;;;4911615;29;20056;-80
2021/04/05 02:01:15;;;;;;;11.98;6.88;;;4.70;99.90;;;;;;4911551;29;20029;-78
2021/04/05 02:03:42;;;;;;;14.90;8.00;;;4.70;99.90;;;;;;4917794;29;20047;-79
2021/04/05 02:06:14;;;;;;;13.07;7.47;;;4.70;99.90;;;;;;4920635;29;20035;-81
2021/04/05 02:08:41;;;;;;;12.30;7.65;;;;;;;;;;4919888;29;20020;-81
2021/04/05 02:11:11;;;;;;;11.68;6.82;;;4.80;99.90;;;;;;4922191;29;20391;-78
2021/04/05 02:13:41;;;;;;;13.40;8.23;;;4.70;99.90;;;;;;4910441;29;20116;-80
2021/04/05 02:16:07;;;;;;;12.25;8.25;;;4.70;99.90;;;;;;4906441;29;20028;-78
2021/04/05 02:18:33;;;;;;;12.50;7.75;;;4.80;99.90;;;;;;4918373;29;20013;-79
2021/04/05 02:20:59;;;;;;;12.43;7.35;;;4.80;99.90;;;;;;4919855;29;20064;-78
2021/04/05 02:23:25;;;;;;;13.32;8.00;;;4.80;99.90;;;;;;4917397;29;20043;-80
2021/04/05 02:26:07;;;;;;;12.02;7.70;;;4.80;99.90;;;;;;4915379;29;20070;-79
2021/04/05 02:28:45;;;;;;;12.05;7.82;;;4.80;99.90;;;;;;4918646;29;20028;-79
2021/04/05 02:31:12;;;;;;;14.02;8.60;;;4.90;99.90;;;;;;4911061;29;20048;-78
2021/04/05 02:33:42;;;;;;;13.88;8.82;;;6.20;99.90;;;;;;4906722;29;20088;-78
2021/04/05 02:36:12;;;;;;;12.50;8.43;;;4.80;99.90;;;;;;4920997;29;20052;-80
2021/04/05 02:38:45;;;;;;;11.70;8.52;;;4.80;99.90;;;;;;4921085;29;20048;-78
2021/04/05 02:41:12;;;;;;;17.33;8.60;;;4.20;99.90;;;;;;4917593;29;20081;-77
2021/04/05 02:43:39;;;;;;;13.27;7.97;;;4.90;99.90;;;;;;4916251;29;20735;-79
2021/04/05 02:46:07;;;;;;;13.57;7.95;;;4.90;99.90;;;;;;4913328;29;20036;-78
2021/04/05 02:48:37;;;;;;;14.90;8.73;;;4.90;99.90;;;;;;4914951;29;20025;-79
2021/04/05 02:51:08;;;;;;;13.50;8.33;;;4.90;99.90;;;;;;4917258;29;20088;-79
2021/04/05 02:53:36;;;;;;;12.83;8.03;;;4.90;99.90;;;;;;4906937;29;20093;-81
2021/04/05 02:56:06;;;;;;;13.32;7.93;;;4.80;99.90;;;;;;4932177;29;20295;-78
2021/04/05 02:58:33;;;;;;;14.57;8.57;;;4.70;99.90;;;;;;4898825;29;20028;-77
2021/04/05 03:01:02;;;;;;;14.23;7.80;;;4.70;99.90;;;;;;4925720;29;20032;-79
2021/04/05 03:03:28;;;;;;;15.85;9.00;;;4.60;99.90;;;;;;4901496;29;20056;-78
2021/04/05 03:05:54;;;;;;;11.60;7.38;;;4.50;99.90;;;;;;4917629;29;20065;-76
2021/04/05 03:08:20;;;;;;;13.55;7.50;;;4.50;99.90;;;;;;4919171;29;20033;-78
2021/04/05 03:10:47;;;;;;;13.27;7.97;;;4.30;99.90;;;;;;4905972;29;20064;-79
2021/04/05 03:13:14;;;;;;;16.92;8.43;;;4.50;99.90;;;;;;4911541;29;20029;-80
2021/04/05 03:15:42;;;;;;;14.18;8.10;;;4.60;99.90;;;;;;4901107;29;20116;-80
2021/04/05 03:18:08;;;;;;;16.15;8.80;;;4.60;99.90;;;;;;4907852;29;20046;-80
2021/04/05 03:20:35;;;;;;;14.18;8.52;;;4.50;99.90;;;;;;4915840;29;20067;-78
2021/04/05 03:23:01;;;;;;;15.13;8.52;;;4.60;99.90;;;;;;4915022;29;20063;-80
2021/04/05 03:25:27;;;;;;;13.43;9.05;;;4.50;99.90;;;;;;4913836;29;20032;-79
2021/04/05 03:27:53;;;;;;;15.38;8.93;;;4.50;99.90;;;;;;4927637;29;20035;-80
2021/04/05 03:30:26;;;;;;;16.20;10.60;;;4.50;99.90;;;;;;4912911;29;20032;-80
2021/04/05 03:33:05;;;;;;;14.82;8.80;;;4.60;99.90;;;;;;4909957;29;20071;-79
2021/04/05 03:35:40;;;;;;;23.13;10.73;;;4.50;99.90;;;;;;4918853;29;20084;-77
2021/04/05 03:38:05;;;;;;;17.27;10.02;;;4.50;99.90;;;;;;4919146;29;20029;-80
2021/04/05 03:40:32;;;;;;;16.50;9.13;;;;;;;;;;4914740;29;20046;-80
2021/04/05 03:43:08;;;;;;;20.15;10.57;;;4.50;99.90;;;;;;4912963;29;20036;-80
2021/04/05 03:45:53;;;;;;;17.55;9.95;;;4.50;99.90;;;;;;4914505;29;20039;-80
2021/04/05 03:48:30;;;;;;;21.98;10.73;;;4.50;99.90;;;;;;4918218;29;20028;-79
2021/04/05 03:51:17;;;;;;;18.75;9.98;;;4.60;99.90;;;;;;4916517;29;20032;-78
2021/04/05 03:54:07;;;;;;;18.63;10.88;;;4.60;99.90;;;;;;4906939;29;20098;-80
2021/04/05 03:56:44;;;;;;;19.42;11.30;;;4.60;99.90;;;;;;4914714;29;20032;-80
2021/04/05 03:59:25;;;;;;;19.58;11.82;;;4.60;99.90;;;;;;4904144;29;20048;-80
2021/04/05 04:02:14;;;;;;;21.15;12.13;;;4.70;99.90;;;;;;4909179;29;20170;-78
2021/04/05 04:04:54;;;;;;;21.13;11.30;;;4.70;99.90;;;;;;4897083;29;20036;-77
2021/04/05 04:07:33;;;;;;;20.63;11.38;;;4.70;99.90;;;;;;4890493;29;20048;-79
2021/04/05 04:10:02;;;;;;;22.27;13.32;;;4.70;99.90;;;;;;4918345;29;20037;-81
2021/04/05 04:12:31;;;;;;;21.38;12.73;;;4.80;99.90;;;;;;4914910;29;20053;-79
2021/04/05 04:14:59;;;;;;;23.02;12.75;;;4.80;99.90;;;;;;4920073;29;20036;-80
2021/04/05 04:17:33;;;;;;;24.13;14.30;;;4.80;99.90;;;;;;4917921;29;20028;-80
2021/04/05 04:20:07;;;;;;;26.45;14.27;;;4.90;99.90;;;;;;4898473;29;20085;-81
2021/04/05 04:22:34;;;;;;;23.65;12.93;;;4.80;99.90;;;;;;4901332;29;20036;-79
2021/04/05 04:25:00;;;;;;;30.00;15.63;;;4.80;99.90;;;;;;4896935;29;20047;-77
2021/04/05 04:27:26;;;;;;;26.60;14.82;;;;;;;;;;4898057;29;20033;-78
2021/04/05 04:29:54;;;;;;;26.00;15.43;;;4.80;99.90;;;;;;4903505;29;20100;-77
2021/04/05 04:32:21;;;;;;;27.33;14.93;;;4.80;99.90;;;;;;4913341;29;20028;-79
2021/04/05 04:34:47;;;;;;;30.25;16.25;;;4.80;99.90;;;;;;4913273;29;20029;-77
2021/04/05 04:37:13;;;;;;;26.95;15.57;;;4.80;99.90;;;;;;4915887;29;20024;-79
2021/04/05 04:39:39;;;;;;;28.23;15.05;;;4.80;99.90;;;;;;4909440;29;20036;-77
2021/04/05 04:42:05;;;;;;;25.88;16.38;;;4.90;99.90;;;;;;4911796;29;20043;-78
2021/04/05 04:44:31;;;;;;;26.45;15.40;;;4.90;99.90;;;;;;4910497;29;20056;-78
2021/04/05 04:46:57;;;;;;;30.05;16.65;;;4.90;99.90;;;;;;4921766;29;20092;-77
2021/04/05 04:49:25;;;;;;;27.98;16.52;;;4.90;99.90;;;;;;4918784;29;20108;-79
2021/04/05 04:51:54;;;;;;;30.05;15.88;;;4.90;99.90;;;;;;4917731;29;20095;-78
2021/04/05 04:54:20;;;;;;;31.85;15.88;;;4.90;99.90;;;;;;4920213;29;20036;-79
2021/04/05 04:56:46;;;;;;;27.42;15.38;;;4.90;99.90;;;;;;4921912;29;20035;-77
2021/04/05 04:59:12;;;;;;;28.35;15.60;;;4.90;99.90;;;;;;4906613;29;20033;-79
2021/04/05 05:01:43;;;;;;;35.47;18.75;;;5.00;99.90;;;;;;4911236;29;20025;-78
2021/04/05 05:04:14;;;;;;;29.90;17.27;;;5.00;99.90;;;;;;4913191;29;20073;-81
2021/04/05 05:06:42;;;;;;;31.95;17.25;;;5.10;99.90;;;;;;4908346;29;20044;-81
2021/04/05 05:09:08;;;;;;;33.33;17.90;;;;;;;;;;4903660;29;20109;-81
2021/04/05 05:11:34;;;;;;;31.80;17.27;;;5.10;99.90;;;;;;4897202;29;20032;-80
2021/04/05 05:14:00;;;;;;;32.00;16.63;;;5.20;99.90;;;;;;4917067;29;20028;-82
2021/04/05 05:16:28;;;;;;;31.88;17.30;;;5.30;99.90;;;;;;4918427;29;20039;-81
2021/04/05 05:18:56;;;;;;;32.10;17.52;;;5.30;99.90;;;;;;4912314;29;20035;-79
2021/04/05 05:21:46;;;;;;;32.85;18.65;;;5.30;99.90;;;;;;4906993;29;20029;-81
2021/04/05 05:24:22;;;;;;;32.22;17.30;;;5.30;99.90;;;;;;4890419;29;20040;-79
2021/04/05 05:26:49;;;;;;;29.23;16.40;;;5.40;99.90;;;;;;4899334;29;20035;-80
2021/04/05 05:29:18;;;;;;;29.20;16.80;;;5.40;99.90;;;;;;4901734;29;20092;-79
2021/04/05 05:31:47;;;;;;;33.33;17.05;;;5.50;99.90;;;;;;4905301;29;20041;-79
2021/04/05 05:34:14;;;;;;;34.38;16.65;;;5.50;99.90;;;;;;4904490;29;20060;-80
2021/04/05 05:36:44;;;;;;;35.47;17.25;;;5.60;99.90;;;;;;4900542;29;20032;-80
2021/04/05 05:39:15;;;;;;;29.17;15.85;;;5.50;99.90;;;;;;4898681;29;20087;-80
2021/04/05 05:41:41;;;;;;;35.90;17.65;;;5.50;99.90;;;;;;4894797;29;20086;-76
2021/04/05 05:44:51;;;;;;;29.00;15.82;;;5.60;99.90;;;;;;4893480;29;20059;-76
2021/04/05 05:47:17;;;;;;;26.83;16.38;;;;;;;;;;4892283;29;20040;-77
2021/04/05 05:50:04;;;;;;;29.27;15.95;;;5.60;99.90;;;;;;4899911;29;20036;-81
2021/04/05 05:52:48;;;;;;;28.63;16.05;;;5.70;99.90;;;;;;4900222;29;20531;-80
2021/04/05 05:55:26;;;;;;;31.65;17.38;;;5.80;99.90;;;;;;4901824;29;20057;-78
2021/04/05 05:58:23;;;;;;;32.47;17.40;;;5.70;99.90;;;;;;4909096;29;20407;-80
2021/04/05 06:01:13;;;;;;;31.27;16.35;;;5.70;99.90;;;;;;4904472;29;20056;-80
2021/04/05 06:03:54;;;;;;;29.85;17.40;;;5.80;99.90;;;;;;4908302;29;20029;-80
2021/04/05 06:06:46;;;;;;;32.03;17.70;;;5.80;99.90;;;;;;4893342;29;20466;-79
2021/04/05 06:09:25;;;;;;;32.28;16.27;;;5.90;99.90;;;;;;4911644;29;20032;-79
2021/04/05 06:12:09;;;;;;;26.48;15.68;;;6.00;99.90;;;;;;4908517;29;20032;-80
2021/04/05 06:15:01;;;;;;;32.95;16.25;;;6.00;99.90;;;;;;4907340;29;20028;-79
2021/04/05 06:17:55;;;;;;;26.58;14.68;;;6.00;99.90;;;;;;4890818;29;20111;-79
2021/04/05 06:20:29;;;;;;;28.42;14.88;;;6.10;99.90;;;;;;4908666;29;20033;-82
2021/04/05 06:23:11;;;;;;;30.55;15.57;;;6.10;99.90;;;;;;4905604;29;20035;-79
2021/04/05 06:26:02;;;;;;;28.83;14.60;;;6.10;99.90;;;;;;4905186;29;20461;-77
2021/04/05 06:28:52;;;;;;;27.27;16.05;;;6.10;99.90;;;;;;4906405;29;20028;-79
2021/04/05 06:31:53;;;;;;;26.15;14.82;;;6.10;99.90;;;;;;4902433;29;20028;-79
2021/04/05 06:34:18;;;;;;;26.08;15.10;;;6.30;99.90;;;;;;4917250;29;20035;-81
2021/04/05 06:36:56;;;;;;;22.58;13.23;;;6.30;99.90;;;;;;4908578;29;20028;-80
2021/04/05 06:39:27;;;;;;;27.65;14.48;;;6.40;99.90;;;;;;4897892;29;20029;-79
2021/04/05 06:41:55;;;;;;;23.83;14.00;;;6.40;99.90;;;;;;4913962;29;20029;-79
2021/04/05 06:45:03;;;;;;;26.30;14.68;;;6.50;99.90;;;;;;4912368;29;20135;-79
2021/04/05 06:48:02;;;;;;;28.02;15.30;;;6.50;99.90;;;;;;4914214;29;20029;-78
2021/04/05 06:50:34;;;;;;;27.08;14.52;;;6.50;99.90;;;;;;4908782;29;20487;-80
2021/04/05 06:53:06;;;;;;;29.80;15.25;;;6.50;99.90;;;;;;4916101;29;20104;-79
2021/04/05 06:55:43;;;;;;;24.65;14.52;;;6.50;99.90;;;;;;4906622;29;20122;-79
2021/04/05 06:58:28;;;;;;;29.77;17.67;;;6.50;99.90;;;;;;4914878;29;20055;-80
2021/04/05 07:01:09;;;;;;;28.88;15.40;;;6.50;99.90;;;;;;4913192;29;20491;-77
2021/04/05 07:03:53;;;;;;;25.73;14.20;;;6.60;99.90;;;;;;4921091;29;20028;-80
2021/04/05 07:06:36;;;;;;;26.45;15.10;;;6.70;99.90;;;;;;4914087;29;20036;-80
2021/04/05 07:09:13;;;;;;;25.77;14.95;;;6.80;99.90;;;;;;4913158;29;20096;-79
2021/04/05 07:12:15;;;;;;;28.25;15.02;;;6.80;99.90;;;;;;4906133;29;20476;-81
2021/04/05 07:14:49;;;;;;;27.15;14.90;;;6.70;99.90;;;;;;4907957;29;20159;-81
2021/04/05 07:17:28;;;;;;;30.23;15.18;;;6.70;99.90;;;;;;4905552;29;20059;-79
2021/04/05 07:19:59;;;;;;;23.17;13.50;;;6.80;99.90;;;;;;4908782;29;20062;-82
2021/04/05 07:22:43;;;;;;;27.55;13.93;;;6.80;99.90;;;;;;4907814;29;20039;-78
2021/04/05 07:25:30;;;;;;;25.60;14.15;;;6.70;99.90;;;;;;4900177;29;20036;-80
2021/04/05 07:28:07;;;;;;;26.20;13.98;;;6.80;99.90;;;;;;4904384;29;20044;-80
2021/04/05 07:30:53;;;;;;;26.45;14.45;;;6.80;99.90;;;;;;4903784;29;20033;-81
2021/04/05 07:33:37;;;;;;;25.10;13.63;;;6.70;99.90;;;;;;4900778;29;20061;-77
2021/04/05 07:36:15;;;;;;;24.27;13.70;;;6.60;99.90;;;;;;4900896;29;20031;-77
2021/04/05 07:39:18;;;;;;;27.90;14.88;;;6.60;99.90;;;;;;4900750;29;20056;-79
2021/04/05 07:42:05;;;;;;;28.45;15.38;;;6.60;99.90;;;;;;4899799;29;20037;-79
2021/04/05 07:44:51;;;;;;;27.98;14.80;;;6.50;99.90;;;;;;4901938;29;20071;-78
2021/04/05 07:47:28;;;;;;;26.48;14.95;;;6.50;99.90;;;;;;4907384;29;20661;-77
2021/04/05 07:50:26;;;;;;;26.92;16.08;;;6.40;99.90;;;;;;4906966;29;20032;-79
2021/04/05 07:52:59;;;;;;;30.58;17.00;;;6.50;99.90;;;;;;4901608;29;20032;-78
2021/04/05 07:55:31;;;;;;;24.92;15.38;;;6.50;99.90;;;;;;4899427;29;20052;-78
2021/04/05 07:58:09;;;;;;;31.33;17.83;;;6.50;99.90;;;;;;4899581;29;20495;-77
2021/04/05 08:00:51;;;;;;;29.20;18.38;;;6.60;99.90;;;;;;4911543;29;20037;-77
2021/04/05 08:03:18;;;;;;;28.70;15.30;;;;;;;;;;4909647;29;20036;-78
2021/04/05 08:05:58;;;;;;;30.17;15.80;;;6.50;99.90;;;;;;4910654;29;20036;-78
2021/04/05 08:08:39;;;;;;;28.85;14.63;;;6.40;99.90;;;;;;4914924;29;20053;-81
2021/04/05 08:11:29;;;;;;;25.88;15.82;;;6.50;99.90;;;;;;4927358;29;20044;-77
2021/04/05 08:14:22;;;;;;;31.10;15.00;;;6.50;99.90;;;;;;4909686;29;20473;-77
2021/04/05 08:17:28;;;;;;;25.17;14.32;;;6.50;99.90;;;;;;4901561;29;20020;-82
2021/04/05 08:20:11;;;;;;;31.73;15.32;;;6.50;99.90;;;;;;4924069;29;20059;-80
2021/04/05 08:22:56;;;;;;;32.13;16.95;;;6.50;99.90;;;;;;4913299;29;20041;-82
2021/04/05 08:26:00;;;;;;;31.75;16.88;;;6.50;99.90;;;;;;4899086;29;20550;-79
2021/04/05 08:28:42;;;;;;;34.17;16.70;;;6.50;99.90;;;;;;4915533;29;20000;-82
2021/04/05 08:31:26;;;;;;;24.35;15.40;;;6.40;99.90;;;;;;4922024;29;20041;-84
2021/04/05 08:34:47;;;;;;;29.15;16.50;;;6.40;99.90;;;;;;4919824;29;20029;-81
2021/04/05 08:37:35;;;;;;;30.52;16.15;;;6.30;99.90;;;;;;4867235;29;20033;-80
2021/04/05 08:40:21;;;;;;;32.40;17.20;;;6.40;99.90;;;;;;4855636;29;20240;-84
2021/04/05 08:43:35;;;;;;;28.73;16.42;;;6.40;99.90;;;;;;4899878;29;20029;-81
2021/04/05 08:46:24;;;;;;;27.50;16.35;;;;;;;;;;4876960;29;20088;-83
2021/04/05 08:48:54;;;;;;;31.73;16.75;;;6.40;99.90;;;;;;4880698;29;20030;-83
2021/04/05 08:51:34;;;;;;;32.25;16.15;;;6.50;99.90;;;;;;4852817;29;20167;-82
2021/04/05 08:54:05;;;;;;;34.35;16.45;;;6.50;99.90;;;;;;4873656;29;20029;-78
2021/04/05 08:56:46;;;;;;;31.77;17.95;;;6.40;99.90;;;;;;4870704;29;20122;-80
2021/04/05 08:59:22;;;;;;;34.35;17.67;;;6.40;99.90;;;;;;4879044;29;20033;-82
2021/04/05 09:01:59;;;;;;;36.40;17.38;;;6.30;99.90;;;;;;4871701;29;20042;-83
2021/04/05 09:04:27;;;;;;;30.88;17.65;;;6.30;99.90;;;;;;4878023;29;20041;-80
2021/04/05 09:07:30;;;;;;;33.33;18.50;;;6.30;99.90;;;;;;4870786;29;20492;-82
2021/04/05 09:10:01;;;;;;;31.10;16.75;;;6.40;99.90;;;;;;4878584;29;20144;-80
2021/04/05 09:12:29;;;;;;;33.70;17.65;;;6.40;99.90;;;;;;4887412;29;20066;-79
2021/04/05 09:15:24;;;;;;;31.70;17.58;;;6.40;99.90;;;;;;4873131;29;20048;-81
2021/04/05 09:18:11;;;;;;;31.80;16.95;;;6.40;99.90;;;;;;4866314;29;20029;-80
2021/04/05 09:21:31;;;;;;;34.65;19.17;;;6.40;99.90;;;;;;4864425;29;20030;-79
2021/04/05 09:24:24;;;;;;;33.95;16.35;;;6.40;99.90;;;;;;4816645;29;20038;-78
2021/04/05 09:27:15;;;;;;;34.85;17.92;;;6.30;99.90;;;;;;4853920;29;20097;-77
2021/04/05 09:30:30;;;;;;;37.75;18.13;;;6.20;99.90;;;;;;4879406;29;20093;-80
2021/04/05 09:33:23;;;;;;;37.13;18.70;;;6.30;99.90;;;;;;4870074;29;20065;-80
2021/04/05 09:36:12;;;;;;;29.75;18.45;;;;;;;;;;4873189;29;20033;-79
2021/04/05 09:38:43;;;;;;;22.45;11.35;;;;;;;;;;4882741;29;20045;-79
2021/04/05 09:41:20;;;;;;;18.25;10.60;;;;;;;;;;4879075;29;20006;-80
2021/04/05 09:43:56;;;;;;;8.68;4.90;;;;;;;;;;4883423;29;20080;-80
2021/04/05 09:46:40;;;;;;;7.22;4.43;;;;;;;;;;4899082;29;20105;-81
2021/04/05 09:49:49;;;;;;;5.88;3.13;;;5.50;99.90;;;;;;4896123;29;20041;-80
2021/04/05 09:52:23;;;;;;;5.65;2.72;;;;;;;;;;4890372;29;20041;-83
2021/04/05 09:55:09;;;;;;;6.55;2.20;;;5.40;99.90;;;;;;4895758;29;20032;-81
2021/04/05 09:57:52;;;;;;;3.28;1.73;;;5.40;99.90;;;;;;4909595;29;20053;-82
2021/04/05 10:00:23;;;;;;;2.22;1.40;;;5.30;99.90;;;;;;4890354;29;20081;-83
2021/04/05 10:02:55;;;;;;;2.90;1.52;;;5.20;99.90;;;;;;4881177;29;20005;-83
2021/04/05 10:05:23;;;;;;;3.58;1.70;;;5.30;99.90;;;;;;4903200;29;20078;-82
2021/04/05 10:07:54;;;;;;;4.65;1.40;;;5.20;99.90;;;;;;4889640;29;20029;-82
2021/04/05 10:10:31;;;;;;;3.30;1.40;;;5.10;99.90;;;;;;4902712;29;20035;-81
2021/04/05 10:12:58;;;;;;;3.05;1.13;;;5.10;99.90;;;;;;4894995;29;20035;-80
2021/04/05 10:15:27;;;;;;;3.08;1.20;;;5.20;99.90;;;;;;4891052;29;20068;-79
2021/04/05 10:18:00;;;;;;;1.83;1.20;;;5.40;99.90;;;;;;4910589;29;20021;-80
2021/04/05 10:20:32;;;;;;;2.53;1.58;;;5.40;99.90;;;;;;4889279;29;20029;-79
2021/04/05 10:23:08;;;;;;;;;;;5.50;99.90;;;;;;4894488;29;20115;-79
2021/04/05 10:25:35;;;;;;;1.80;0.95;;;;;;;;;;4904666;29;19975;-77
2021/04/05 10:28:06;;;;;;;1.90;1.25;;;5.70;99.90;;;;;;4910149;29;20035;-79
2021/04/05 10:30:35;;;;;;;1.52;1.20;;;5.90;99.90;;;;;;4903080;29;20103;-80
2021/04/05 10:33:08;;;;;;;2.80;1.20;;;5.70;99.90;;;;;;4902175;29;20025;-79
2021/04/05 10:35:44;;;;;;;1.77;1.08;;;5.90;99.90;;;;;;4908105;29;20088;-79
2021/04/05 10:38:10;;;;;;;1.95;1.02;;;;;;;;;;4903874;29;20086;-81
2021/04/05 10:40:39;;;;;;;3.50;1.30;;;;;;;;;;4896808;29;20080;-80
2021/04/05 10:43:34;;;;;;;1.75;1.35;;;6.20;99.90;;;;;;4890917;29;20061;-77
2021/04/05 10:46:10;;;;;;;1.70;1.10;;;6.10;99.90;;;;;;4883048;29;20053;-78
2021/04/05 10:48:46;;;;;;;1.10;0.75;;;6.10;99.90;;;;;;4899244;29;20060;-80
2021/04/05 10:51:40;;;;;;;3.50;0.88;;;6.30;99.90;;;;;;4893259;29;20029;-79
2021/04/05 10:54:32;;;;;;;3.00;1.20;;;6.20;99.90;;;;;;4902073;29;20085;-77
2021/04/05 10:57:08;;;;;;;1.00;0.93;;;6.40;99.90;;;;;;4906179;29;20040;-81
2021/04/05 11:00:01;;;;;;;2.15;1.20;;;6.50;99.90;;;;;;4910513;29;20064;-80
2021/04/05 11:02:37;;;;;;;2.55;1.40;;;6.50;99.90;;;;;;4904840;29;20037;-80
2021/04/05 11:05:10;;;;;;;1.98;1.30;;;6.50;99.90;;;;;;4914084;29;20036;-79
2021/04/05 11:07:40;;;;;;;4.32;2.03;;;6.50;99.90;;;;;;4908784;29;20025;-81
2021/04/05 11:10:20;;;;;;;4.78;2.00;;;6.30;99.90;;;;;;4903611;29;20033;-80
2021/04/05 11:12:52;;;;;;;5.18;3.22;;;6.20;99.90;;;;;;4893920;29;20028;-81
2021/04/05 11:15:20;;;;;;;5.25;3.00;;;6.30;99.90;;;;;;4886466;29;20514;-80
2021/04/05 11:17:50;;;;;;;3.42;2.17;;;6.70;99.90;;;;;;4903399;29;20033;-78
2021/04/05 11:20:26;;;;;;;4.88;2.22;;;6.40;99.90;;;;;;4903610;29;20088;-80
2021/04/05 11:22:58;;;;;;;2.35;1.67;;;6.10;99.90;;;;;;4877000;29;20058;-82
2021/04/05 11:25:39;;;;;;;5.57;2.45;;;6.10;99.90;;;;;;4897940;29;20068;-80
2021/04/05 11:28:15;;;;;;;3.80;2.20;;;6.10;99.90;;;;;;4893302;29;20041;-82
2021/04/05 11:30:44;;;;;;;3.03;1.98;;;;;;;;;;4897144;29;20060;-82
2021/04/05 11:33:13;;;;;;;3.63;2.33;;;6.10;99.90;;;;;;4909196;29;20025;-83
2021/04/05 11:35:40;;;;;;;2.78;2.15;;;;;;;;;;4894872;29;20036;-82
2021/04/05 11:38:19;;;;;;;3.40;1.60;;;6.10;99.90;;;;;;4897463;29;20025;-80
2021/04/05 11:41:01;;;;;;;1.88;1.20;;;6.50;99.90;;;;;;4897254;29;20029;-80
2021/04/05 11:43:32;;;;;;;2.30;1.52;;;6.90;99.90;;;;;;4870483;29;20109;-79
2021/04/05 11:46:05;;;;;;;3.73;1.57;;;6.90;99.90;;;;;;4877314;29;20037;-78
2021/04/05 11:48:35;;;;;;;1.67;1.30;;;;;;;;;;4872590;29;20017;-80
2021/04/05 11:51:05;;;;;;;3.55;1.50;;;7.10;99.90;;;;;;4887785;29;20036;-79
2021/04/05 11:53:48;;;;;;;2.83;1.23;;;;;;;;;;4886338;29;20040;-81
2021/04/05 11:56:17;;;;;;;2.63;1.40;;;;;;;;;;4908355;29;20028;-80
2021/04/05 11:58:49;;;;;;;3.70;1.38;;;7.20;99.40;;;;;;4905657;29;20025;-81
2021/04/05 12:01:20;;;;;;;2.38;1.40;;;7.10;99.10;;;;;;4904152;29;20110;-81
2021/04/05 12:03:59;;;;;;;3.30;1.23;;;7.00;98.60;;;;;;4899052;29;20025;-82
2021/04/05 12:06:36;;;;;;;4.40;1.42;;;6.90;99.90;;;;;;4885008;29;20068;-79
2021/04/05 12:09:24;;;;;;;2.90;1.58;;;6.50;99.90;;;;;;4895394;29;20432;-79
2021/04/05 12:11:54;;;;;;;3.28;1.25;;;5.60;99.90;;;;;;4895930;29;20387;-80
2021/04/05 12:14:31;;;;;;;1.45;1.10;;;5.20;99.90;;;;;;4883366;29;20042;-80
2021/04/05 12:17:07;;;;;;;3.60;1.85;;;4.80;99.90;;;;;;4885062;29;20480;-78
2021/04/05 12:19:38;;;;;;;4.28;2.28;;;;;;;;;;4899546;29;20024;-79
2021/04/05 12:22:18;;;;;;;1.77;1.23;;;;;;;;;;4893918;29;20057;-79
2021/04/05 12:24:51;;;;;;;2.42;1.42;;;4.50;99.90;;;;;;4897595;29;20025;-83
2021/04/05 12:27:30;;;;;;;2.13;1.40;;;5.00;99.90;;;;;;4885370;29;20517;-81
2021/04/05 12:30:01;;;;;;;5.57;3.05;;;5.50;99.90;;;;;;4890618;29;20029;-80
2021/04/05 12:32:33;;;;;;;4.22;2.10;;;5.90;99.90;;;;;;4888491;29;20119;-80
2021/04/05 12:35:03;;;;;;;2.78;1.45;;;6.40;99.90;;;;;;4880251;29;20100;-80
2021/04/05 12:37:30;;;;;;;1.42;0.90;;;;;;;;;;4871829;29;20032;-81
2021/04/05 12:40:04;;;;;;;1.05;0.93;;;7.80;99.90;;;;;;4891728;29;20111;-86
2021/04/05 12:42:34;;;;;;;1.88;0.82;;;8.40;97.50;;;;;;4876962;29;20036;-82
2021/04/05 12:45:17;;;;;;;1.92;1.00;;;8.60;96.20;;;;;;4896574;29;20056;-85
2021/04/05 12:47:44;;;;;;;1.60;1.48;;;9.10;95.10;;;;;;4892387;29;20084;-81
2021/04/05 12:50:14;;;;;;;10.75;6.70;;;9.20;92.90;;;;;;4889009;29;20045;-82
2021/04/05 12:52:42;;;;;;;1.73;0.98;;;9.40;90.60;;;;;;4894079;29;20056;-80
2021/04/05 12:55:18;;;;;;;0.88;0.80;;;9.60;89.70;;;;;;4888257;29;20092;-84
2021/04/05 12:57:45;;;;;;;2.42;1.40;;;9.60;90.40;;;;;;4902615;29;20021;-78
2021/04/05 13:00:14;;;;;;;2.78;1.60;;;;;;;;;;4887046;29;20049;-79
2021/04/05 13:02:44;;;;;;;1.67;1.10;;;8.80;89.20;;;;;;4885119;29;20039;-79
2021/04/05 13:05:26;;;;;;;0.95;0.70;;;8.10;91.20;;;;;;4884833;29;20045;-83
2021/04/05 13:08:00;;;;;;;1.73;0.98;;;8.10;92.70;;;;;;4884005;29;20177;-80
2021/04/05 13:10:33;;;;;;;1.80;0.75;;;8.10;92.80;;;;;;4872883;29;20043;-81
2021/04/05 13:13:07;;;;;;;1.58;1.10;;;8.30;91.80;;;;;;4888186;29;20040;-79
2021/04/05 13:15:35;;;;;;;2.92;1.10;;;7.90;91.90;;;;;;4901335;29;20041;-83
2021/04/05 13:18:07;;;;;;;1.23;0.85;;;7.80;92.50;;;;;;4881744;29;20029;-80
2021/04/05 13:20:36;;;;;;;1.27;1.13;;;7.80;92.90;;;;;;4894043;29;20045;-82
2021/04/05 13:23:06;;;;;;;1.38;1.00;;;7.80;93.10;;;;;;4895280;29;20100;-76
2021/04/05 13:25:37;;;;;;;1.42;0.95;;;8.10;89.50;;;;;;4871372;29;20041;-79
2021/04/05 13:28:03;;;;;;;;;;;8.10;89.80;;;;;;4872211;29;20037;-82
2021/04/05 13:30:31;;;;;;;1.73;1.10;;;8.30;90.00;;;;;;4870361;29;19919;-84
2021/04/05 13:33:00;;;;;;;2.03;1.27;;;8.20;90.70;;;;;;4864066;29;20039;-81
2021/04/05 13:35:28;;;;;;;1.45;0.98;;;8.20;87.00;;;;;;4861534;29;20085;-78
2021/04/05 13:37:57;;;;;;;1.70;0.98;;;8.00;85.20;;;;;;4879998;29;20173;-78